Time;durP1;ratioP1;P1;durP2;ratioP2;P2;SDS_P1;SDS_P2;PMS_P1;PMS_P2;Temp;Humidity;BMP_temperature;BMP_pressure;BME280_temperature;BME280_humidity;BME280_pressure;Samples;Min_cycle;Max_cycle;Signal;HPM_P1;HPM_P2
2021/07/19 00:01:46;;;;;;;;;;;17.10;99.90;;;;;;5029137;28;19905;-64
2021/07/19 00:04:12;;;;;;;;;;;17.10;99.90;;;;;;5028083;28;19935;-64
2021/07/19 00:06:37;;;;;;;;;;;17.10;99.90;;;;;;5028406;28;20315;-64
2021/07/19 00:09:03;;;;;;;;;;;17.10;99.90;;;;;;5028949;28;19997;-64
2021/07/19 00:11:31;;;;;;;;;;;17.10;99.90;;;;;;5027097;28;19913;-64
2021/07/19 00:13:57;;;;;;;;;;;17.10;99.90;;;;;;5026767;28;19905;-64
2021/07/19 00:16:23;;;;;;;;;;;17.10;99.90;;;;;;5028789;28;20444;-64
2021/07/19 00:18:48;;;;;;;;;;;17.10;99.90;;;;;;5028964;28;19908;-65
2021/07/19 00:21:17;;;;;;;;;;;17.10;99.90;;;;;;5026583;28;20004;-65
2021/07/19 00:23:43;;;;;;;;;;;17.10;99.90;;;;;;5028017;28;20265;-64
2021/07/19 00:26:15;;;;;;;;;;;17.20;99.90;;;;;;5028900;28;19950;-65
2021/07/19 00:28:41;;;;;;;;;;;17.20;99.90;;;;;;5028785;28;19928;-64
2021/07/19 00:31:06;;;;;;;;;;;17.20;99.90;;;;;;5026287;28;20318;-67
2021/07/19 00:33:34;;;;;;;;;;;17.20;99.90;;;;;;5028757;28;20007;-64
2021/07/19 00:36:02;;;;;;;;;;;17.10;99.90;;;;;;5028063;28;19912;-65
2021/07/19 00:38:27;;;;;;;;;;;17.20;99.90;;;;;;5022789;28;20058;-64
2021/07/19 00:40:52;;;;;;;;;;;17.20;99.90;;;;;;5009228;28;20401;-64
2021/07/19 00:43:18;;;;;;;;;;;17.20;99.90;;;;;;5009113;28;19993;-65
2021/07/19 00:45:46;;;;;;;;;;;17.20;99.90;;;;;;5018567;28;19909;-64
2021/07/19 00:48:14;;;;;;;;;;;17.20;99.90;;;;;;5027613;28;20358;-64
2021/07/19 00:50:40;;;;;;;;;;;17.20;99.90;;;;;;5028821;28;19909;-64
2021/07/19 00:53:09;;;;;;;;;;;17.20;99.90;;;;;;5027821;28;20052;-64
2021/07/19 00:55:36;;;;;;;;;;;17.10;99.90;;;;;;5028852;28;19991;-65
2021/07/19 00:58:03;;;;;;;;;;;17.20;99.90;;;;;;5018793;28;20346;-65
2021/07/19 01:00:31;;;;;;;;;;;17.20;99.90;;;;;;5009041;28;20301;-65
2021/07/19 01:02:59;;;;;;;;;;;17.20;99.90;;;;;;5019596;28;19920;-64
2021/07/19 01:05:25;;;;;;;;;;;17.20;99.90;;;;;;5024957;28;19952;-64
2021/07/19 01:07:54;;;;;;;;;;;17.20;99.90;;;;;;5008673;28;19906;-64
2021/07/19 01:10:19;;;;;;;;;;;17.20;99.90;;;;;;5011601;28;19940;-64
2021/07/19 01:12:47;;;;;;;;;;;17.20;99.90;;;;;;5030165;28;19905;-64
2021/07/19 01:15:12;;;;;;;;;;;17.20;99.90;;;;;;5031725;28;19980;-67
2021/07/19 01:17:38;;;;;;;;;;;17.20;99.90;;;;;;5030194;28;19925;-64
2021/07/19 01:20:04;;;;;;;;;;;17.20;99.90;;;;;;5031716;28;19928;-64
2021/07/19 01:22:54;;;;;;;;;;;17.30;99.90;;;;;;5027169;28;19909;-62
2021/07/19 01:25:35;;;;;;;;;;;17.30;99.90;;;;;;5012290;28;20249;-64
2021/07/19 01:28:00;;;;;;;;;;;17.30;99.90;;;;;;5010907;28;19912;-64
2021/07/19 01:30:28;;;;;;;;;;;17.20;99.90;;;;;;5012175;28;19905;-66
2021/07/19 01:32:55;;;;;;;;;;;17.30;99.90;;;;;;5011518;28;19932;-64
2021/07/19 01:35:21;;;;;;;;;;;17.30;99.90;;;;;;5012310;28;19971;-64
2021/07/19 01:37:47;;;;;;;;;;;17.30;99.90;;;;;;5029342;28;19960;-64
2021/07/19 01:40:16;;;;;;;;;;;17.30;99.90;;;;;;5030090;28;19917;-64
2021/07/19 01:42:44;;;;;;;;;;;17.30;99.90;;;;;;5031063;28;19912;-64
2021/07/19 01:45:13;;;;;;;;;;;17.30;99.90;;;;;;5029629;28;19915;-65
2021/07/19 01:47:38;;;;;;;;;;;17.30;99.90;;;;;;5031329;28;20399;-63
2021/07/19 01:50:08;;;;;;;;;;;17.30;99.90;;;;;;5018004;28;19913;-63
2021/07/19 01:52:37;;;;;;;;;;;17.20;99.90;;;;;;5009790;28;20180;-64
2021/07/19 01:55:03;;;;;;;;;;;17.20;99.90;;;;;;5022550;28;19940;-65
2021/07/19 01:57:31;;;;;;;;;;;17.20;99.90;;;;;;5027101;28;20357;-65
2021/07/19 02:00:01;;;;;;;;;;;17.30;99.90;;;;;;5023504;28;19919;-65
2021/07/19 02:02:29;;;;;;;;;;;17.30;99.90;;;;;;5030026;28;19993;-65
2021/07/19 02:04:58;;;;;;;;;;;17.30;99.90;;;;;;5030295;28;19952;-65
2021/07/19 02:07:24;;;;;;;;;;;17.30;99.90;;;;;;5025594;28;19936;-65
2021/07/19 02:09:53;;;;;;;;;;;17.30;99.90;;;;;;5036002;28;19909;-65
2021/07/19 02:12:18;;;;;;;;;;;17.30;99.90;;;;;;5031519;28;19905;-65
2021/07/19 02:14:44;;;;;;;;;;;17.30;99.90;;;;;;5030886;28;19920;-65
2021/07/19 02:17:13;;;;;;;;;;;17.20;99.90;;;;;;5029129;28;19936;-66
2021/07/19 02:19:39;;;;;;;;;;;17.20;99.90;;;;;;5028077;28;20449;-64
2021/07/19 02:22:05;;;;;;;;;;;17.20;99.90;;;;;;5029984;28;20048;-65
2021/07/19 02:24:37;;;;;;;;;;;17.30;99.90;;;;;;5029977;28;19915;-64
2021/07/19 02:27:02;;;;;;;;;;;17.30;99.90;;;;;;5013523;28;20385;-65
2021/07/19 02:29:29;;;;;;;;;;;17.30;99.90;;;;;;5029410;28;19944;-65
2021/07/19 02:31:57;;;;;;;;;;;17.30;99.90;;;;;;5031011;28;19992;-64
2021/07/19 02:34:25;;;;;;;;;;;17.30;99.90;;;;;;5030253;28;20338;-64
2021/07/19 02:36:51;;;;;;;;;;;17.30;99.90;;;;;;5028078;28;19920;-64
2021/07/19 02:39:20;;;;;;;;;;;17.30;99.90;;;;;;5028817;28;19911;-64
2021/07/19 02:41:48;;;;;;;;;;;17.30;99.90;;;;;;5030366;28;20361;-64
2021/07/19 02:44:14;;;;;;;;;;;17.30;99.90;;;;;;5025739;28;19971;-64
2021/07/19 02:46:42;;;;;;;;;;;17.30;99.90;;;;;;5021588;28;19977;-64
2021/07/19 02:49:10;;;;;;;;;;;17.30;99.90;;;;;;5028210;28;19905;-64
2021/07/19 02:51:39;;;;;;;;;;;17.30;99.90;;;;;;5029882;28;19905;-64
2021/07/19 02:54:07;;;;;;;;;;;17.30;99.90;;;;;;5028491;28;19909;-64
2021/07/19 02:56:37;;;;;;;;;;;17.20;99.90;;;;;;5028266;28;19971;-64
2021/07/19 02:59:05;;;;;;;;;;;17.20;99.90;;;;;;5029074;28;19951;-64
2021/07/19 03:01:35;;;;;;;;;;;17.20;99.90;;;;;;5029643;28;19908;-64
2021/07/19 03:04:10;;;;;;;;;;;17.20;99.90;;;;;;5019310;28;19913;-64
2021/07/19 03:06:39;;;;;;;;;;;17.20;99.90;;;;;;5008320;28;20000;-64
2021/07/19 03:09:05;;;;;;;;;;;17.20;99.90;;;;;;5010113;28;19905;-64
2021/07/19 03:11:38;;;;;;;;;;;17.30;99.90;;;;;;5023739;28;19909;-64
2021/07/19 03:14:07;;;;;;;;;;;17.20;99.90;;;;;;5026730;28;19999;-64
2021/07/19 03:16:33;;;;;;;;;;;17.20;99.90;;;;;;5026746;28;19916;-64
2021/07/19 03:18:59;;;;;;;;;;;17.20;99.90;;;;;;5029062;28;20321;-65
2021/07/19 03:21:25;;;;;;;;;;;17.20;99.90;;;;;;5019935;28;19929;-64
2021/07/19 03:23:53;;;;;;;7.53;4.85;;;17.20;99.90;;;;;;5026767;28;24911;-64
2021/07/19 03:26:21;;;;;;;8.47;5.60;;;17.30;99.90;;;;;;5014966;28;20626;-64
2021/07/19 03:28:50;;;;;;;5.00;4.50;;;17.40;99.90;;;;;;5009551;28;20587;-64
2021/07/19 03:31:28;;;;;;;;;;;;;;;;;;;;;
2021/07/19 03:33:57;;;;;;;5.33;4.10;;;17.50;99.90;;;;;;5027802;28;20590;-64
2021/07/19 03:36:24;;;;;;;6.60;4.13;;;17.50;99.90;;;;;;5027725;28;20584;-64
2021/07/19 03:38:51;;;;;;;6.50;4.50;;;17.50;99.90;;;;;;5009955;28;20699;-64
2021/07/19 03:41:20;;;;;;;6.57;4.20;;;17.60;99.90;;;;;;5007486;28;21237;-64
2021/07/19 03:43:53;;;;;;;5.90;4.60;;;17.50;99.90;;;;;;5008621;28;20652;-65
2021/07/19 03:46:22;;;;;;;7.00;4.50;;;17.60;99.90;;;;;;5008819;28;21120;-64
2021/07/19 03:48:48;;;;;;;7.33;4.63;;;17.50;99.90;;;;;;5012140;28;20587;-64
2021/07/19 03:51:14;;;;;;;8.13;4.63;;;17.50;99.90;;;;;;5028398;28;20671;-65
2021/07/19 03:53:40;;;;;;;6.10;4.50;;;17.60;99.90;;;;;;5014505;28;20259;-64
2021/07/19 03:56:06;;;;;;;7.47;4.77;;;17.50;99.90;;;;;;5028457;28;20185;-64
2021/07/19 03:58:36;;;;;;;5.73;4.53;;;17.50;99.90;;;;;;5027057;28;20612;-64
2021/07/19 04:01:12;;;;;;;6.47;4.40;;;17.60;99.90;;;;;;5025290;28;20917;-64
2021/07/19 04:03:47;;;;;;;7.43;6.20;;;17.60;99.90;;;;;;5008357;28;20734;-64
2021/07/19 04:06:22;;;;;;;4.90;4.40;;;17.70;99.90;;;;;;5009187;28;20590;-65
2021/07/19 04:08:49;;;;;;;;;;;17.70;99.90;;;;;;5010480;28;21061;-64
2021/07/19 04:11:16;;;;;;;;;;;17.70;99.90;;;;;;5028629;28;19905;-64
2021/07/19 04:13:45;;;;;;;;;;;17.60;99.90;;;;;;5028474;28;19928;-64
2021/07/19 04:16:15;;;;;;;;;;;17.60;99.90;;;;;;5027251;28;19909;-65
2021/07/19 04:18:40;;;;;;;;;;;17.60;99.90;;;;;;5028737;28;19915;-64
2021/07/19 04:21:06;;;;;;;;;;;17.60;99.90;;;;;;5025727;28;19905;-64
2021/07/19 04:23:32;;;;;;;;;;;17.50;99.90;;;;;;5008322;28;19976;-64
2021/07/19 04:25:57;;;;;;;;;;;17.60;99.90;;;;;;5008978;28;19910;-65
2021/07/19 04:28:24;;;;;;;;;;;17.50;99.90;;;;;;5017722;28;19913;-64
2021/07/19 04:30:50;;;;;;;;;;;17.60;99.90;;;;;;5027723;28;19909;-64
2021/07/19 04:33:24;;;;;;;;;;;17.50;99.90;;;;;;5030045;28;19905;-64
2021/07/19 04:35:50;;;;;;;;;;;17.50;99.90;;;;;;5011697;28;19910;-64
2021/07/19 04:38:22;;;;;;;;;;;17.60;99.90;;;;;;5010907;28;19940;-64
2021/07/19 04:40:54;;;;;;;;;;;17.50;99.90;;;;;;5010854;28;19906;-64
2021/07/19 04:43:19;;;;;;;;;;;17.50;99.90;;;;;;5022975;28;19912;-64
2021/07/19 04:45:48;;;;;;;;;;;17.40;99.90;;;;;;5045484;23;19990;-65
2021/07/19 04:48:14;;;;;;;;;;;17.40;99.90;;;;;;5047228;28;19916;-65
2021/07/19 04:50:42;;;;;;;;;;;17.50;99.90;;;;;;5054867;28;19996;-65
2021/07/19 04:53:10;;;;;;;;;;;17.50;99.90;;;;;;5053836;28;19979;-65
2021/07/19 04:55:40;;;;;;;;;;;17.50;99.90;;;;;;5001436;28;19967;-65
2021/07/19 04:58:07;;;;;;;;;;;17.50;99.90;;;;;;5027851;28;19905;-65
2021/07/19 05:00:35;;;;;;;;;;;17.50;99.90;;;;;;5030011;28;19916;-65
2021/07/19 05:03:03;;;;;;;;;;;17.50;99.90;;;;;;5034198;28;20169;-65
2021/07/19 05:05:31;;;;;;;;;;;17.50;99.90;;;;;;5034889;28;20353;-65
2021/07/19 05:07:58;;;;;;;;;;;17.50;99.90;;;;;;5034421;28;20186;-65
2021/07/19 05:10:27;;;;;;;;;;;17.50;99.90;;;;;;5033250;28;19916;-65
2021/07/19 05:12:54;;;;;;;;;;;17.50;99.90;;;;;;5015006;28;19909;-65
2021/07/19 05:15:21;;;;;;;;;;;17.60;99.90;;;;;;5034444;28;19905;-65
2021/07/19 05:17:48;;;;;;;;;;;17.60;99.90;;;;;;5033969;28;19909;-65
2021/07/19 05:20:14;;;;;;;;;;;17.60;99.90;;;;;;5031648;28;19909;-66
2021/07/19 05:22:50;;;;;;;;;;;17.60;99.90;;;;;;5012095;28;20330;-65
2021/07/19 05:25:26;;;;;;;;;;;17.60;99.90;;;;;;5024836;28;19905;-65
2021/07/19 05:28:00;;;;;;;;;;;17.60;99.90;;;;;;5034015;28;20285;-65
2021/07/19 05:30:25;;;;;;;;;;;17.60;99.90;;;;;;5033233;28;20376;-65
2021/07/19 05:32:51;;;;;;;;;;;17.60;99.90;;;;;;5033920;28;19908;-65
2021/07/19 05:35:17;;;;;;;;;;;17.60;99.90;;;;;;5033439;28;20384;-66
2021/07/19 05:37:43;;;;;;;;;;;17.60;99.90;;;;;;5032438;28;19916;-65
2021/07/19 05:40:11;;;;;;;;;;;17.70;99.90;;;;;;5033523;28;19991;-66
2021/07/19 05:42:39;;;;;;;;;;;17.70;99.90;;;;;;5034045;28;19905;-66
2021/07/19 05:45:05;;;;;;;;;;;17.70;99.90;;;;;;5032385;28;20445;-66
2021/07/19 05:47:30;;;;;;;;;;;17.80;99.90;;;;;;5032952;28;19909;-64
2021/07/19 05:49:56;;;;;;;;;;;17.80;99.90;;;;;;5031436;28;19916;-64
2021/07/19 05:52:23;;;;;;;;;;;17.80;99.90;;;;;;5032837;28;19908;-66
2021/07/19 05:54:49;;;;;;;;;;;17.80;99.90;;;;;;5031900;28;19952;-66
2021/07/19 05:57:14;;;;;;;;;;;17.90;99.90;;;;;;5032547;28;20338;-65
2021/07/19 05:59:40;;;;;;;;;;;17.80;99.90;;;;;;5033501;28;20416;-65
2021/07/19 06:02:08;;;;;;;;;;;17.70;99.90;;;;;;5016025;28;19905;-65
2021/07/19 06:04:34;;;;;;;;;;;17.80;99.90;;;;;;5031677;28;19920;-65
2021/07/19 06:07:00;;;;;;;;;;;17.80;99.90;;;;;;5033363;28;19991;-65
2021/07/19 06:09:25;;;;;;;;;;;17.90;99.90;;;;;;5025064;28;19949;-65
2021/07/19 06:11:51;;;;;;;;;;;18.00;99.90;;;;;;5019632;28;20292;-66
2021/07/19 06:14:16;;;;;;;;;;;18.00;99.90;;;;;;5020005;28;20000;-65
2021/07/19 06:16:42;;;;;;;;;;;18.00;99.90;;;;;;5032205;28;19909;-65
2021/07/19 06:19:09;;;;;;;;;;;18.00;99.90;;;;;;5031267;28;19909;-65
2021/07/19 06:21:35;;;;;;;;;;;18.00;99.90;;;;;;5032448;28;19905;-65
2021/07/19 06:24:00;;;;;;;;;;;18.00;99.90;;;;;;5032222;28;20294;-65
2021/07/19 06:26:26;;;;;;;;;;;18.10;99.90;;;;;;5031148;28;19955;-65
2021/07/19 06:28:51;;;;;;;;;;;18.20;99.90;;;;;;5032732;28;19912;-65
2021/07/19 06:31:17;;;;;;;;;;;18.30;99.90;;;;;;5032545;28;19905;-65
2021/07/19 06:33:42;;;;;;;;;;;18.30;99.90;;;;;;5030056;28;19928;-65
2021/07/19 06:36:08;;;;;;;;;;;18.30;99.90;;;;;;5032243;28;19905;-65
2021/07/19 06:38:33;;;;;;;;;;;18.30;99.90;;;;;;5033034;28;19927;-65
2021/07/19 06:40:59;;;;;;;;;;;18.30;99.90;;;;;;5031882;28;20472;-65
2021/07/19 06:43:24;;;;;;;;;;;18.40;99.90;;;;;;5030798;28;19913;-65
2021/07/19 06:45:50;;;;;;;;;;;18.40;99.90;;;;;;5031781;28;19913;-65
2021/07/19 06:48:15;;;;;;;;;;;18.50;99.90;;;;;;5030941;28;20266;-64
2021/07/19 06:50:41;;;;;;;;;;;18.60;99.90;;;;;;5030443;28;19924;-65
2021/07/19 06:53:09;;;;;;;;;;;18.50;99.90;;;;;;5031569;28;19915;-65
2021/07/19 06:55:35;;;;;;;;;;;18.50;99.90;;;;;;5032245;28;19913;-65
2021/07/19 06:58:03;;;;;;;;;;;18.50;99.90;;;;;;5031398;28;20395;-65
2021/07/19 07:00:28;;;;;;;;;;;18.70;99.90;;;;;;5030995;28;19909;-64
2021/07/19 07:02:54;;;;;;;;;;;18.70;99.90;;;;;;5031490;28;20361;-65
2021/07/19 07:05:19;;;;;;;;;;;18.70;99.90;;;;;;5032083;28;20029;-65
2021/07/19 07:07:49;;;;;;;;;;;18.70;99.90;;;;;;5030112;28;19963;-64
2021/07/19 07:10:15;;;;;;;;;;;18.80;99.90;;;;;;5032192;28;19921;-65
2021/07/19 07:12:42;;;;;;;;;;;18.80;99.90;;;;;;5031805;28;19909;-65
2021/07/19 07:15:09;;;;;;;;;;;18.80;99.90;;;;;;5007338;28;19916;-65
2021/07/19 07:17:34;;;;;;;;;;;18.90;99.90;;;;;;5032743;28;19913;-65
2021/07/19 07:20:00;;;;;;;;;;;18.90;99.90;;;;;;5031675;28;19915;-65
2021/07/19 07:22:25;;;;;;;;;;;18.90;99.90;;;;;;5031526;28;19999;-64
2021/07/19 07:24:50;;;;;;;;;;;19.00;99.90;;;;;;5030863;28;20411;-65
2021/07/19 07:27:19;;;;;;;;;;;19.10;99.90;;;;;;5011329;28;19916;-65
2021/07/19 07:29:45;;;;;;;;;;;19.10;99.90;;;;;;5024060;28;19933;-65
2021/07/19 07:32:10;;;;;;;;;;;19.10;99.90;;;;;;5031541;28;19979;-65
2021/07/19 07:34:36;;;;;;;;;;;19.20;99.90;;;;;;5031075;28;19916;-64
2021/07/19 07:37:01;;;;;;;;;;;19.20;99.90;;;;;;5030437;28;19920;-65
2021/07/19 07:39:27;;;;;;;;;;;19.30;99.90;;;;;;5031161;28;20473;-65
2021/07/19 07:41:52;;;;;;;;;;;19.40;99.90;;;;;;5030911;28;19992;-64
2021/07/19 07:44:18;;;;;;;;;;;19.50;99.90;;;;;;5029297;28;19924;-65
2021/07/19 07:46:44;;;;;;;;;;;19.50;99.90;;;;;;5029047;28;19968;-66
2021/07/19 07:49:10;;;;;;;;;;;19.50;99.90;;;;;;5025255;28;19906;-65
2021/07/19 07:51:35;;;;;;;;;;;19.60;99.90;;;;;;5027764;28;20004;-65
2021/07/19 07:54:01;;;;;;;;;;;19.70;99.90;;;;;;5029197;28;20260;-65
2021/07/19 07:56:27;;;;;;;;;;;19.80;99.90;;;;;;5012704;28;19963;-65
2021/07/19 07:58:52;;;;;;;;;;;19.80;99.90;;;;;;5030944;28;20070;-65
2021/07/19 08:01:18;;;;;;;;;;;19.90;99.90;;;;;;5012181;28;20404;-65
2021/07/19 08:03:43;;;;;;;;;;;19.90;99.90;;;;;;5029341;28;19913;-65
2021/07/19 08:06:09;;;;;;;;;;;19.90;99.90;;;;;;5011380;28;20434;-65
2021/07/19 08:08:34;;;;;;;;;;;19.80;99.90;;;;;;5028734;28;20008;-65
2021/07/19 08:11:00;;;;;;;;;;;19.70;99.90;;;;;;5028967;28;20381;-65
2021/07/19 08:13:25;;;;;;;;;;;19.70;99.90;;;;;;5029797;28;19971;-65
2021/07/19 08:15:51;;;;;;;;;;;19.70;99.90;;;;;;5030799;28;19909;-66
2021/07/19 08:18:16;;;;;;;;;;;19.70;99.90;;;;;;5029577;28;19916;-67
2021/07/19 08:20:42;;;;;;;;;;;19.70;99.90;;;;;;5031875;28;19916;-65
2021/07/19 08:23:08;;;;;;;;;;;19.70;99.90;;;;;;5034148;28;19928;-65
2021/07/19 08:25:33;;;;;;;;;;;19.50;99.90;;;;;;5032264;28;19921;-64
2021/07/19 08:27:58;;;;;;;;;;;19.60;99.90;;;;;;5032900;28;20003;-65
2021/07/19 08:30:24;;;;;;;;;;;19.60;99.90;;;;;;5033369;28;19909;-64
2021/07/19 08:32:51;;;;;;;;;;;19.60;99.90;;;;;;5032271;28;19995;-64
2021/07/19 08:35:17;;;;;;;;;;;19.60;99.90;;;;;;5034342;28;19909;-65
2021/07/19 08:37:45;;;;;;;;;;;19.60;99.90;;;;;;5033232;28;20331;-65
2021/07/19 08:40:11;;;;;;;;;;;19.50;99.90;;;;;;5034470;28;19909;-65
2021/07/19 08:42:37;;;;;;;;;;;19.60;99.90;;;;;;5033886;28;19955;-65
2021/07/19 08:45:06;;;;;;;;;;;19.60;99.90;;;;;;5033991;28;19913;-65
2021/07/19 08:47:34;;;;;;;;;;;19.50;99.90;;;;;;5033185;28;19913;-65
2021/07/19 08:50:00;;;;;;;;;;;19.70;99.90;;;;;;5034259;28;19912;-65
2021/07/19 08:52:26;;;;;;;;;;;19.80;99.90;;;;;;5030387;28;19910;-65
2021/07/19 08:54:51;;;;;;;;;;;19.90;99.90;;;;;;5031458;28;19917;-65
2021/07/19 08:57:19;;;;;;;;;;;20.00;99.90;;;;;;5034148;28;19905;-65
2021/07/19 08:59:45;;;;;;;;;;;20.10;99.90;;;;;;5032294;28;19909;-65
2021/07/19 09:02:11;;;;;;;;;;;20.10;99.90;;;;;;5032606;28;20000;-65
2021/07/19 09:04:36;;;;;;;;;;;20.10;99.90;;;;;;5033524;28;19993;-65
2021/07/19 09:07:02;;;;;;;;;;;20.20;99.90;;;;;;5032994;28;19917;-65
2021/07/19 09:09:28;;;;;;;;;;;20.30;99.90;;;;;;5022109;28;19913;-65
2021/07/19 09:11:54;;;;;;;;;;;20.30;99.90;;;;;;5032625;28;20365;-66
2021/07/19 09:14:19;;;;;;;;;;;20.30;99.90;;;;;;5033120;28;19905;-64
2021/07/19 09:16:46;;;;;;;;;;;20.10;99.90;;;;;;5033019;28;19956;-66
2021/07/19 09:19:15;;;;;;;;;;;20.10;99.90;;;;;;5032010;28;19966;-65
2021/07/19 09:21:42;;;;;;;;;;;20.20;99.90;;;;;;5033275;28;20401;-65
2021/07/19 09:24:08;;;;;;;;;;;20.20;99.90;;;;;;5031974;28;19955;-65
2021/07/19 09:26:34;;;;;;;;;;;20.20;99.90;;;;;;5032369;28;19916;-66
2021/07/19 09:29:00;;;;;;;;;;;20.20;99.90;;;;;;5032021;28;19909;-65
2021/07/19 09:31:39;;;;;;;;;;;20.20;99.90;;;;;;5033443;28;20289;-65
2021/07/19 09:34:12;;;;;;;;;;;20.20;99.90;;;;;;5028307;28;19996;-65
2021/07/19 09:36:37;;;;;;;;;;;20.30;99.90;;;;;;5024999;28;19917;-65
2021/07/19 09:39:04;;;;;;;;;;;20.40;99.90;;;;;;5032935;28;19905;-65
2021/07/19 09:41:32;;;;;;;;;;;20.40;99.90;;;;;;5015296;28;19909;-65
2021/07/19 09:43:57;;;;;;;;;;;20.50;99.90;;;;;;5024853;28;19920;-65
2021/07/19 09:46:32;;;;;;;;;;;20.50;99.90;;;;;;5028802;28;19920;-65
2021/07/19 09:48:58;;;;;;;;;;;20.40;99.90;;;;;;5032608;28;19955;-65
2021/07/19 09:51:27;;;;;;;;;;;20.40;99.90;;;;;;5031903;28;20323;-65
2021/07/19 09:53:53;;;;;;;;;;;20.40;99.90;;;;;;5014252;28;19916;-65
2021/07/19 09:56:20;;;;;;;;;;;20.30;99.90;;;;;;5031967;28;19909;-65
2021/07/19 09:58:48;;;;;;;;;;;20.30;99.90;;;;;;5014415;28;19999;-65
2021/07/19 10:01:29;;;;;;;;;;;20.30;99.90;;;;;;5032650;28;20001;-65
2021/07/19 10:04:06;;;;;;;;;;;20.30;99.90;;;;;;5029875;28;19913;-65
2021/07/19 10:06:32;;;;;;;;;;;20.40;99.90;;;;;;5031927;28;19943;-65
2021/07/19 10:08:58;;;;;;;;;;;20.40;99.90;;;;;;5032599;28;19924;-64
2021/07/19 10:11:28;;;;;;;;;;;20.30;99.90;;;;;;5032328;28;19954;-65
2021/07/19 10:13:53;;;;;;;;;;;20.30;99.90;;;;;;5031898;28;19905;-65
2021/07/19 10:16:19;;;;;;;;;;;20.30;99.90;;;;;;5031781;28;19932;-64
2021/07/19 10:18:49;;;;;;;;;;;20.40;99.90;;;;;;5025434;28;19920;-65
2021/07/19 10:21:14;;;;;;;;;;;20.40;99.90;;;;;;5025857;28;19909;-65
2021/07/19 10:23:40;;;;;;;;;;;20.30;99.90;;;;;;5013820;28;20320;-64
2021/07/19 10:26:06;;;;;;;;;;;20.20;99.90;;;;;;5031394;28;19957;-64
2021/07/19 10:28:31;;;;;;;;;;;20.20;99.90;;;;;;5031502;28;19909;-65
2021/07/19 10:30:57;;;;;;;;;;;20.30;99.90;;;;;;5036284;28;20007;-65
2021/07/19 10:33:22;;;;;;;;;;;20.30;99.90;;;;;;5032945;28;20233;-64
2021/07/19 10:35:49;;;;;;;;;;;20.30;99.90;;;;;;5032204;28;19998;-65
2021/07/19 10:38:18;;;;;;;;;;;20.20;99.90;;;;;;5032294;28;19905;-65
2021/07/19 10:40:44;;;;;;;;;;;20.30;99.90;;;;;;5031233;28;20004;-65
2021/07/19 10:43:10;;;;;;;;;;;20.30;99.90;;;;;;5031091;28;20334;-65
2021/07/19 10:45:40;;;;;;;;;;;20.40;99.90;;;;;;5047673;23;19920;-69
2021/07/19 10:48:05;;;;;;;;;;;20.50;99.90;;;;;;5049464;28;20035;-69
2021/07/19 10:50:36;;;;;;;;;;;20.50;99.90;;;;;;5032308;28;20039;-68
2021/07/19 10:53:01;;;;;;;;;;;20.50;99.90;;;;;;5043929;28;19913;-68
2021/07/19 10:55:30;;;;;;;;;;;20.40;99.90;;;;;;5036711;28;19927;-71
2021/07/19 10:58:05;;;;;;;;;;;20.40;99.90;;;;;;5046730;28;20367;-71
2021/07/19 11:00:35;;;;;;;;;;;20.50;99.90;;;;;;5044909;28;20335;-71
2021/07/19 11:03:19;;;;;;;;;;;20.90;99.90;;;;;;5049715;28;19966;-71
2021/07/19 11:05:46;;;;;;;;;;;21.00;99.90;;;;;;5031117;28;19908;-70
2021/07/19 11:08:22;;;;;;;;;;;21.00;99.90;;;;;;5049416;28;19999;-70
2021/07/19 11:10:48;;;;;;;;;;;21.00;99.90;;;;;;5047401;28;20344;-70
2021/07/19 11:13:27;;;;;;;;;;;21.00;99.90;;;;;;5050055;28;19999;-70
2021/07/19 11:15:53;;;;;;;;;;;21.00;99.90;;;;;;5049936;28;19996;-70
2021/07/19 11:18:22;;;;;;;;;;;20.90;99.90;;;;;;5053752;28;20321;-70
2021/07/19 11:20:48;;;;;;;;;;;20.80;99.90;;;;;;5026517;28;20277;-70
2021/07/19 11:23:14;;;;;;;;;;;20.80;99.90;;;;;;5047044;28;19912;-71
2021/07/19 11:25:43;;;;;;;;;;;20.70;99.90;;;;;;5031496;28;19921;-71
2021/07/19 11:28:16;;;;;;;;;;;20.60;99.90;;;;;;5054902;28;19982;-70
2021/07/19 11:30:41;;;;;;;;;;;20.50;99.90;;;;;;5045568;28;19988;-70
2021/07/19 11:33:11;;;;;;;;;;;20.40;99.90;;;;;;5047119;28;20621;-69
2021/07/19 11:35:38;;;;;;;;;;;20.30;99.90;;;;;;5037646;28;20069;-68
2021/07/19 11:38:12;;;;;;;;;;;20.40;99.90;;;;;;5068766;28;20087;-69
2021/07/19 11:40:38;;;;;;;;;;;20.40;99.90;;;;;;5038460;28;20426;-68
2021/07/19 11:43:11;;;;;;;;;;;20.30;99.90;;;;;;5046503;28;20075;-68
2021/07/19 11:45:38;;;;;;;;;;;20.30;99.90;;;;;;5030339;28;20375;-68
2021/07/19 11:48:05;;;;;;;;;;;20.40;99.90;;;;;;5030811;28;19915;-67
2021/07/19 11:50:30;;;;;;;;;;;20.30;99.90;;;;;;5048827;28;19908;-68
2021/07/19 11:52:56;;;;;;;;;;;20.30;99.90;;;;;;5047285;28;19984;-68
2021/07/19 11:55:22;;;;;;;;;;;20.30;99.90;;;;;;5050350;28;19913;-68
2021/07/19 11:57:50;;;;;;;;;;;20.30;99.90;;;;;;5046738;28;20261;-69
2021/07/19 12:00:26;;;;;;;;;;;20.40;99.90;;;;;;5051912;28;19905;-68
2021/07/19 12:03:11;;;;;;;;;;;20.40;99.90;;;;;;5032867;28;19980;-68
2021/07/19 12:05:37;;;;;;;;;;;20.50;99.90;;;;;;5053531;28;20439;-69
2021/07/19 12:08:08;;;;;;;;;;;20.50;99.90;;;;;;5047280;28;20008;-69
2021/07/19 12:10:35;;;;;;;;;;;20.60;99.90;;;;;;5051313;28;19913;-69
2021/07/19 12:13:11;;;;;;;;;;;20.80;99.90;;;;;;5049328;28;19912;-69
2021/07/19 12:15:38;;;;;;;;;;;20.90;99.90;;;;;;5047884;28;19913;-68
2021/07/19 12:18:03;;;;;;;;;;;20.90;99.90;;;;;;5049493;28;19970;-69
2021/07/19 12:20:30;;;;;;;;;;;21.00;99.90;;;;;;5057478;28;19913;-69
2021/07/19 12:22:56;;;;;;;;;;;21.20;99.90;;;;;;5030484;28;20372;-69
2021/07/19 12:25:22;;;;;;;;;;;21.30;99.90;;;;;;5048474;28;19962;-69
2021/07/19 12:27:55;;;;;;;;;;;21.40;99.90;;;;;;5049613;28;19943;-68
2021/07/19 12:30:27;;;;;;;;;;;21.50;99.90;;;;;;5049335;28;19905;-71
2021/07/19 12:32:53;;;;;;;;;;;21.60;99.90;;;;;;5041765;28;19996;-70
2021/07/19 12:35:23;;;;;;;;;;;21.60;99.90;;;;;;5047379;28;19996;-70
2021/07/19 12:37:53;;;;;;;;;;;21.70;99.90;;;;;;5046572;28;19994;-68
2021/07/19 12:40:18;;;;;;;;;;;21.80;99.90;;;;;;5049091;28;19905;-69
2021/07/19 12:42:45;;;;;;;;;;;21.70;99.90;;;;;;5045522;28;19915;-71
2021/07/19 12:45:12;;;;;;;;;;;21.70;99.90;;;;;;5030902;28;19917;-69
2021/07/19 12:47:38;;;;;;;;;;;21.80;99.90;;;;;;5045261;28;20365;-68
2021/07/19 12:50:04;;;;;;;;;;;21.90;99.90;;;;;;5045263;28;20004;-71
2021/07/19 12:52:31;;;;;;;;;;;21.80;99.90;;;;;;5045745;28;19934;-70
2021/07/19 12:55:01;;;;;;;;;;;21.70;99.90;;;;;;5045687;28;19936;-70
2021/07/19 12:57:30;;;;;;;;;;;21.70;99.90;;;;;;5048125;28;19905;-70
2021/07/19 12:59:56;;;;;;;;;;;21.60;99.90;;;;;;5032385;28;19909;-70
2021/07/19 13:02:25;;;;;;;;;;;21.50;99.90;;;;;;5047647;28;19962;-71
2021/07/19 13:04:53;;;;;;;;;;;21.50;99.90;;;;;;5043194;28;19912;-68
2021/07/19 13:07:28;;;;;;;;;;;21.40;99.90;;;;;;5052330;28;20299;-71
2021/07/19 13:09:54;;;;;;;;;;;21.40;99.90;;;;;;5045197;28;19913;-71
2021/07/19 13:12:19;;;;;;;;;;;21.40;99.90;;;;;;5051378;28;19919;-68
2021/07/19 13:14:46;;;;;;;;;;;21.40;99.90;;;;;;5054284;28;20003;-70
2021/07/19 13:17:21;;;;;;;;;;;21.30;99.90;;;;;;5038332;28;19929;-70
2021/07/19 13:19:54;;;;;;;;;;;21.30;99.90;;;;;;5051183;28;20269;-70
2021/07/19 13:22:20;;;;;;;;;;;21.40;99.90;;;;;;5051270;28;19905;-70
2021/07/19 13:24:47;;;;;;;;;;;21.50;99.90;;;;;;5027382;28;19928;-70
2021/07/19 13:27:15;;;;;;;;;;;21.50;99.90;;;;;;5045515;28;19909;-70
2021/07/19 13:29:55;;;;;;;;;;;21.50;99.90;;;;;;5048221;28;19912;-70
2021/07/19 13:32:25;;;;;;;;;;;21.50;99.90;;;;;;5045371;28;19908;-70
2021/07/19 13:34:58;;;;;;;;;;;21.50;99.90;;;;;;5048789;28;19969;-70
2021/07/19 13:37:24;;;;;;;;;;;21.50;99.90;;;;;;5046397;28;19912;-67
2021/07/19 13:39:49;;;;;;;;;;;21.40;99.90;;;;;;5050751;28;19909;-67
2021/07/19 13:42:15;;;;;;;;;;;21.30;99.90;;;;;;5031015;28;19919;-67
2021/07/19 13:44:41;;;;;;;;;;;21.20;99.90;;;;;;4995862;28;1031076;-67
2021/07/19 13:47:07;;;;;;;;;;;21.20;99.90;;;;;;5051636;28;20324;-67
2021/07/19 13:49:34;;;;;;;;;;;21.10;99.90;;;;;;5050833;28;20007;-67
2021/07/19 13:51:59;;;;;;;;;;;21.10;99.90;;;;;;5046705;28;19917;-67
2021/07/19 13:54:25;;;;;;;;;;;21.20;99.90;;;;;;5041260;28;19912;-67
2021/07/19 13:56:51;;;;;;;;;;;21.20;99.90;;;;;;5036179;28;19944;-67
2021/07/19 13:59:16;;;;;;;;;;;21.20;99.90;;;;;;5058484;28;19909;-67
2021/07/19 14:01:42;;;;;;;;;;;21.20;99.90;;;;;;5047889;28;19930;-67
2021/07/19 14:04:07;;;;;;;;;;;21.10;99.90;;;;;;5033229;28;19931;-67
2021/07/19 14:06:33;;;;;;;;;;;21.00;99.90;;;;;;5057978;28;19990;-67
2021/07/19 14:08:58;;;;;;;;;;;21.10;99.90;;;;;;5031964;28;19966;-67
2021/07/19 14:11:24;;;;;;;;;;;21.10;99.90;;;;;;5045387;28;19971;-67
2021/07/19 14:13:49;;;;;;;;;;;21.20;99.90;;;;;;5050643;28;20276;-67
2021/07/19 14:16:15;;;;;;;;;;;21.10;99.90;;;;;;5052111;28;20274;-68